sensor_id;sensor_type;location;lat;lon;timestamp;temperature;humidity
4795;DHT22;2411;47.060;15.064;2023-04-24T00:02:06;8.10;1.00
4795;DHT22;2411;47.060;15.064;2023-04-24T00:04:37;8.10;1.00
4795;DHT22;2411;47.060;15.064;2023-04-24T00:07:07;8.00;1.00
4795;DHT22;2411;47.060;15.064;2023-04-24T00:09:34;8.00;1.00
4795;DHT22;2411;47.060;15.064;2023-04-24T00:12:02;7.90;1.00
4795;DHT22;2411;47.060;15.064;2023-04-24T00:14:31;7.80;1.00
4795;DHT22;2411;47.060;15.064;2023-04-24T00:16:58;7.60;1.00
4795;DHT22;2411;47.060;15.064;2023-04-24T00:19:26;7.70;1.00
4795;DHT22;2411;47.060;15.064;2023-04-24T00:21:53;7.60;1.00
4795;DHT22;2411;47.060;15.064;2023-04-24T00:24:21;7.70;1.00
4795;DHT22;2411;47.060;15.064;2023-04-24T00:26:48;7.60;1.00
4795;DHT22;2411;47.060;15.064;2023-04-24T00:29:15;7.60;1.00
4795;DHT22;2411;47.060;15.064;2023-04-24T00:31:42;7.50;1.00
4795;DHT22;2411;47.060;15.064;2023-04-24T00:34:10;7.50;1.00
4795;DHT22;2411;47.060;15.064;2023-04-24T00:36:38;7.60;9.10
4795;DHT22;2411;47.060;15.064;2023-04-24T00:39:06;7.60;8.90
4795;DHT22;2411;47.060;15.064;2023-04-24T00:41:35;7.60;1.00
4795;DHT22;2411;47.060;15.064;2023-04-24T00:44:03;7.50;1.00
4795;DHT22;2411;47.060;15.064;2023-04-24T00:46:31;7.40;1.00
4795;DHT22;2411;47.060;15.064;2023-04-24T00:48:59;7.50;1.00
4795;DHT22;2411;47.060;15.064;2023-04-24T00:51:26;7.60;1.00
4795;DHT22;2411;47.060;15.064;2023-04-24T00:53:54;7.50;1.00
4795;DHT22;2411;47.060;15.064;2023-04-24T00:56:21;7.60;6.70
4795;DHT22;2411;47.060;15.064;2023-04-24T00:58:50;7.70;8.20
4795;DHT22;2411;47.060;15.064;2023-04-24T01:01:20;7.70;1.00
4795;DHT22;2411;47.060;15.064;2023-04-24T01:03:51;7.60;1.00
4795;DHT22;2411;47.060;15.064;2023-04-24T01:06:19;7.60;1.00
4795;DHT22;2411;47.060;15.064;2023-04-24T01:08:47;7.50;1.00
4795;DHT22;2411;47.060;15.064;2023-04-24T01:11:15;7.50;1.00
4795;DHT22;2411;47.060;15.064;2023-04-24T01:13:43;7.60;2.40
4795;DHT22;2411;47.060;15.064;2023-04-24T01:16:10;7.40;1.00
4795;DHT22;2411;47.060;15.064;2023-04-24T01:18:38;7.40;1.00
4795;DHT22;2411;47.060;15.064;2023-04-24T01:21:06;7.40;1.00
4795;DHT22;2411;47.060;15.064;2023-04-24T01:23:35;7.50;1.00
4795;DHT22;2411;47.060;15.064;2023-04-24T01:26:02;7.50;1.00
4795;DHT22;2411;47.060;15.064;2023-04-24T01:28:30;7.00;1.00
4795;DHT22;2411;47.060;15.064;2023-04-24T01:30:58;7.00;1.00
4795;DHT22;2411;47.060;15.064;2023-04-24T01:33:26;7.00;1.00
4795;DHT22;2411;47.060;15.064;2023-04-24T01:35:54;6.90;1.00
4795;DHT22;2411;47.060;15.064;2023-04-24T01:38:21;7.10;1.00
4795;DHT22;2411;47.060;15.064;2023-04-24T01:40:50;7.10;12.50
4795;DHT22;2411;47.060;15.064;2023-04-24T01:43:18;7.20;12.90
4795;DHT22;2411;47.060;15.064;2023-04-24T01:45:46;7.20;1.00
4795;DHT22;2411;47.060;15.064;2023-04-24T01:48:13;7.10;1.00
4795;DHT22;2411;47.060;15.064;2023-04-24T01:50:40;7.10;1.00
4795;DHT22;2411;47.060;15.064;2023-04-24T01:53:08;6.90;1.00
4795;DHT22;2411;47.060;15.064;2023-04-24T01:55:35;6.90;1.50
4795;DHT22;2411;47.060;15.064;2023-04-24T01:58:02;6.90;1.00
4795;DHT22;2411;47.060;15.064;2023-04-24T02:00:30;6.90;1.00
4795;DHT22;2411;47.060;15.064;2023-04-24T02:02:57;6.80;1.00
4795;DHT22;2411;47.060;15.064;2023-04-24T02:05:25;7.10;89.30
4795;DHT22;2411;47.060;15.064;2023-04-24T02:07:52;7.20;74.40
4795;DHT22;2411;47.060;15.064;2023-04-24T02:10:19;7.30;13.00
4795;DHT22;2411;47.060;15.064;2023-04-24T02:12:46;7.30;5.90
4795;DHT22;2411;47.060;15.064;2023-04-24T02:15:14;7.10;1.60
4795;DHT22;2411;47.060;15.064;2023-04-24T02:17:41;7.10;1.60
4795;DHT22;2411;47.060;15.064;2023-04-24T02:20:09;7.20;12.60
4795;DHT22;2411;47.060;15.064;2023-04-24T02:22:36;7.00;1.00
4795;DHT22;2411;47.060;15.064;2023-04-24T02:25:04;6.70;1.00
4795;DHT22;2411;47.060;15.064;2023-04-24T02:27:32;6.80;1.00
4795;DHT22;2411;47.060;15.064;2023-04-24T02:29:59;6.80;2.10
4795;DHT22;2411;47.060;15.064;2023-04-24T02:32:26;6.70;10.70
4795;DHT22;2411;47.060;15.064;2023-04-24T02:34:53;6.60;7.30
4795;DHT22;2411;47.060;15.064;2023-04-24T02:37:21;6.80;6.60
4795;DHT22;2411;47.060;15.064;2023-04-24T02:39:48;6.80;22.50
4795;DHT22;2411;47.060;15.064;2023-04-24T02:42:15;6.80;66.40
4795;DHT22;2411;47.060;15.064;2023-04-24T02:44:42;6.80;43.60
4795;DHT22;2411;47.060;15.064;2023-04-24T02:47:10;6.80;59.50
4795;DHT22;2411;47.060;15.064;2023-04-24T02:49:37;6.70;43.10
4795;DHT22;2411;47.060;15.064;2023-04-24T02:52:04;6.70;60.70
4795;DHT22;2411;47.060;15.064;2023-04-24T02:54:32;6.70;91.80
4795;DHT22;2411;47.060;15.064;2023-04-24T02:56:59;6.90;99.90
4795;DHT22;2411;47.060;15.064;2023-04-24T02:59:28;6.90;99.90
4795;DHT22;2411;47.060;15.064;2023-04-24T03:01:55;7.00;99.90
4795;DHT22;2411;47.060;15.064;2023-04-24T03:04:23;7.00;99.90
4795;DHT22;2411;47.060;15.064;2023-04-24T03:06:50;7.00;99.90
4795;DHT22;2411;47.060;15.064;2023-04-24T03:09:20;7.20;99.90
4795;DHT22;2411;47.060;15.064;2023-04-24T03:11:47;7.10;42.30
4795;DHT22;2411;47.060;15.064;2023-04-24T03:14:16;7.00;18.80
4795;DHT22;2411;47.060;15.064;2023-04-24T03:16:43;7.00;25.50
4795;DHT22;2411;47.060;15.064;2023-04-24T03:19:10;7.10;1.00
4795;DHT22;2411;47.060;15.064;2023-04-24T03:21:38;7.00;1.00
4795;DHT22;2411;47.060;15.064;2023-04-24T03:24:08;6.90;1.00
4795;DHT22;2411;47.060;15.064;2023-04-24T03:26:38;7.00;10.70
4795;DHT22;2411;47.060;15.064;2023-04-24T03:29:05;7.00;1.00
4795;DHT22;2411;47.060;15.064;2023-04-24T03:31:32;7.00;1.00
4795;DHT22;2411;47.060;15.064;2023-04-24T03:34:00;6.80;1.00
4795;DHT22;2411;47.060;15.064;2023-04-24T03:36:27;6.80;1.00
4795;DHT22;2411;47.060;15.064;2023-04-24T03:38:54;6.70;1.00
4795;DHT22;2411;47.060;15.064;2023-04-24T03:41:22;6.80;1.00
4795;DHT22;2411;47.060;15.064;2023-04-24T03:43:49;6.80;1.00
4795;DHT22;2411;47.060;15.064;2023-04-24T03:46:16;6.80;1.00
4795;DHT22;2411;47.060;15.064;2023-04-24T03:48:44;6.90;3.60
4795;DHT22;2411;47.060;15.064;2023-04-24T03:51:11;6.80;51.90
4795;DHT22;2411;47.060;15.064;2023-04-24T03:53:38;6.90;93.30
4795;DHT22;2411;47.060;15.064;2023-04-24T03:56:06;7.00;70.30
4795;DHT22;2411;47.060;15.064;2023-04-24T03:58:33;7.10;65.90
4795;DHT22;2411;47.060;15.064;2023-04-24T04:01:00;7.10;59.60
4795;DHT22;2411;47.060;15.064;2023-04-24T04:03:28;7.10;40.70
4795;DHT22;2411;47.060;15.064;2023-04-24T04:05:55;7.20;22.20
4795;DHT22;2411;47.060;15.064;2023-04-24T04:08:23;7.30;14.90
4795;DHT22;2411;47.060;15.064;2023-04-24T04:10:50;7.40;1.00
4795;DHT22;2411;47.060;15.064;2023-04-24T04:13:17;7.30;1.00
4795;DHT22;2411;47.060;15.064;2023-04-24T04:15:44;7.50;1.00
4795;DHT22;2411;47.060;15.064;2023-04-24T04:18:12;7.40;1.00
4795;DHT22;2411;47.060;15.064;2023-04-24T04:20:39;7.50;1.00
4795;DHT22;2411;47.060;15.064;2023-04-24T04:23:07;7.70;1.00
4795;DHT22;2411;47.060;15.064;2023-04-24T04:25:34;7.50;1.00
4795;DHT22;2411;47.060;15.064;2023-04-24T04:28:01;7.60;1.00
4795;DHT22;2411;47.060;15.064;2023-04-24T04:30:29;7.70;1.00
4795;DHT22;2411;47.060;15.064;2023-04-24T04:32:59;7.70;1.00
4795;DHT22;2411;47.060;15.064;2023-04-24T04:35:27;7.90;1.00
4795;DHT22;2411;47.060;15.064;2023-04-24T04:37:55;8.00;1.00
4795;DHT22;2411;47.060;15.064;2023-04-24T04:40:25;7.90;1.00
4795;DHT22;2411;47.060;15.064;2023-04-24T04:42:54;7.90;1.00
4795;DHT22;2411;47.060;15.064;2023-04-24T04:45:21;7.80;1.00
4795;DHT22;2411;47.060;15.064;2023-04-24T04:47:49;7.80;1.00
4795;DHT22;2411;47.060;15.064;2023-04-24T04:50:16;7.80;1.00
4795;DHT22;2411;47.060;15.064;2023-04-24T04:52:45;7.90;1.00
4795;DHT22;2411;47.060;15.064;2023-04-24T04:55:13;7.80;1.00
4795;DHT22;2411;47.060;15.064;2023-04-24T04:57:40;7.90;1.00
4795;DHT22;2411;47.060;15.064;2023-04-24T05:00:08;7.90;1.00
4795;DHT22;2411;47.060;15.064;2023-04-24T05:02:40;7.90;1.00
4795;DHT22;2411;47.060;15.064;2023-04-24T05:05:08;8.00;1.00
4795;DHT22;2411;47.060;15.064;2023-04-24T05:07:36;7.90;1.00
4795;DHT22;2411;47.060;15.064;2023-04-24T05:10:03;8.00;1.00
4795;DHT22;2411;47.060;15.064;2023-04-24T05:12:31;8.10;1.00
4795;DHT22;2411;47.060;15.064;2023-04-24T05:14:58;8.10;1.00
4795;DHT22;2411;47.060;15.064;2023-04-24T05:17:26;8.10;1.00
4795;DHT22;2411;47.060;15.064;2023-04-24T05:19:53;8.20;1.00
4795;DHT22;2411;47.060;15.064;2023-04-24T05:22:20;8.30;1.00
4795;DHT22;2411;47.060;15.064;2023-04-24T05:24:48;8.40;1.00
4795;DHT22;2411;47.060;15.064;2023-04-24T05:27:15;8.50;1.00
4795;DHT22;2411;47.060;15.064;2023-04-24T05:29:43;8.70;1.00
4795;DHT22;2411;47.060;15.064;2023-04-24T05:32:11;8.90;1.00
4795;DHT22;2411;47.060;15.064;2023-04-24T05:34:38;8.80;1.00
4795;DHT22;2411;47.060;15.064;2023-04-24T05:37:05;9.00;1.00
4795;DHT22;2411;47.060;15.064;2023-04-24T05:39:35;9.00;1.00
4795;DHT22;2411;47.060;15.064;2023-04-24T05:42:03;9.00;1.00
4795;DHT22;2411;47.060;15.064;2023-04-24T05:44:31;9.00;1.00
4795;DHT22;2411;47.060;15.064;2023-04-24T05:46:58;9.00;1.00
4795;DHT22;2411;47.060;15.064;2023-04-24T05:49:26;8.90;1.00
4795;DHT22;2411;47.060;15.064;2023-04-24T05:51:53;8.90;1.00
4795;DHT22;2411;47.060;15.064;2023-04-24T05:54:20;8.90;1.00
4795;DHT22;2411;47.060;15.064;2023-04-24T05:56:49;8.90;1.00
4795;DHT22;2411;47.060;15.064;2023-04-24T05:59:17;8.70;1.00
4795;DHT22;2411;47.060;15.064;2023-04-24T06:01:44;8.80;1.00
4795;DHT22;2411;47.060;15.064;2023-04-24T06:04:12;8.80;1.00
4795;DHT22;2411;47.060;15.064;2023-04-24T06:06:41;8.80;1.00
4795;DHT22;2411;47.060;15.064;2023-04-24T06:09:08;8.70;1.00
4795;DHT22;2411;47.060;15.064;2023-04-24T06:11:35;8.60;1.00
4795;DHT22;2411;47.060;15.064;2023-04-24T06:14:02;8.60;1.00
4795;DHT22;2411;47.060;15.064;2023-04-24T06:16:30;8.70;1.00
4795;DHT22;2411;47.060;15.064;2023-04-24T06:18:58;8.70;1.00
4795;DHT22;2411;47.060;15.064;2023-04-24T06:21:25;8.80;1.00
4795;DHT22;2411;47.060;15.064;2023-04-24T06:23:53;8.90;1.00
4795;DHT22;2411;47.060;15.064;2023-04-24T06:26:20;9.00;1.00
4795;DHT22;2411;47.060;15.064;2023-04-24T06:28:49;9.00;1.00
4795;DHT22;2411;47.060;15.064;2023-04-24T06:31:17;9.10;1.00
4795;DHT22;2411;47.060;15.064;2023-04-24T06:33:44;9.10;1.00
4795;DHT22;2411;47.060;15.064;2023-04-24T06:36:12;9.30;1.00
4795;DHT22;2411;47.060;15.064;2023-04-24T06:38:39;9.20;1.00
4795;DHT22;2411;47.060;15.064;2023-04-24T06:41:07;9.30;1.00
4795;DHT22;2411;47.060;15.064;2023-04-24T06:43:34;9.30;1.00
4795;DHT22;2411;47.060;15.064;2023-04-24T06:46:01;9.30;1.00
4795;DHT22;2411;47.060;15.064;2023-04-24T06:48:30;9.30;1.00
4795;DHT22;2411;47.060;15.064;2023-04-24T06:50:57;9.30;1.00
4795;DHT22;2411;47.060;15.064;2023-04-24T06:53:25;9.30;1.00
4795;DHT22;2411;47.060;15.064;2023-04-24T06:55:52;9.20;1.00
4795;DHT22;2411;47.060;15.064;2023-04-24T06:58:19;9.30;1.00
4795;DHT22;2411;47.060;15.064;2023-04-24T07:00:47;9.20;1.00
4795;DHT22;2411;47.060;15.064;2023-04-24T07:03:14;9.30;1.00
4795;DHT22;2411;47.060;15.064;2023-04-24T07:05:42;9.30;1.00
4795;DHT22;2411;47.060;15.064;2023-04-24T07:08:09;9.10;1.00
4795;DHT22;2411;47.060;15.064;2023-04-24T07:10:38;9.30;1.00
4795;DHT22;2411;47.060;15.064;2023-04-24T07:13:05;9.30;1.00
4795;DHT22;2411;47.060;15.064;2023-04-24T07:15:34;9.40;1.00
4795;DHT22;2411;47.060;15.064;2023-04-24T07:18:01;9.30;1.00
4795;DHT22;2411;47.060;15.064;2023-04-24T07:20:32;9.30;1.00
4795;DHT22;2411;47.060;15.064;2023-04-24T07:23:00;9.40;1.00
4795;DHT22;2411;47.060;15.064;2023-04-24T07:25:27;9.40;1.00
4795;DHT22;2411;47.060;15.064;2023-04-24T07:27:54;9.40;1.00
4795;DHT22;2411;47.060;15.064;2023-04-24T07:30:22;9.40;1.00
4795;DHT22;2411;47.060;15.064;2023-04-24T07:32:49;9.60;1.00
4795;DHT22;2411;47.060;15.064;2023-04-24T07:35:17;9.70;1.00
4795;DHT22;2411;47.060;15.064;2023-04-24T07:37:44;9.80;1.00
4795;DHT22;2411;47.060;15.064;2023-04-24T07:40:13;9.80;1.00
4795;DHT22;2411;47.060;15.064;2023-04-24T07:42:40;9.90;1.00
4795;DHT22;2411;47.060;15.064;2023-04-24T07:45:08;10.00;1.00
4795;DHT22;2411;47.060;15.064;2023-04-24T07:47:36;9.90;1.00
4795;DHT22;2411;47.060;15.064;2023-04-24T07:50:04;10.10;1.00
4795;DHT22;2411;47.060;15.064;2023-04-24T07:52:32;10.00;1.00
4795;DHT22;2411;47.060;15.064;2023-04-24T07:54:59;10.00;1.00
4795;DHT22;2411;47.060;15.064;2023-04-24T07:57:27;9.90;1.00
4795;DHT22;2411;47.060;15.064;2023-04-24T07:59:54;9.90;1.00
4795;DHT22;2411;47.060;15.064;2023-04-24T08:02:22;9.80;1.00
4795;DHT22;2411;47.060;15.064;2023-04-24T08:04:53;9.70;1.00
4795;DHT22;2411;47.060;15.064;2023-04-24T08:07:22;9.80;1.00
4795;DHT22;2411;47.060;15.064;2023-04-24T08:09:50;9.80;1.00
4795;DHT22;2411;47.060;15.064;2023-04-24T08:12:17;9.80;1.00
4795;DHT22;2411;47.060;15.064;2023-04-24T08:14:45;9.80;1.00
4795;DHT22;2411;47.060;15.064;2023-04-24T08:17:12;9.70;1.00
4795;DHT22;2411;47.060;15.064;2023-04-24T08:19:40;9.70;1.00
4795;DHT22;2411;47.060;15.064;2023-04-24T08:22:15;10.00;1.00
4795;DHT22;2411;47.060;15.064;2023-04-24T08:24:42;9.90;1.00
4795;DHT22;2411;47.060;15.064;2023-04-24T08:27:10;10.10;1.00
4795;DHT22;2411;47.060;15.064;2023-04-24T08:29:38;10.00;1.00
4795;DHT22;2411;47.060;15.064;2023-04-24T08:32:05;10.00;1.00
4795;DHT22;2411;47.060;15.064;2023-04-24T08:34:33;10.00;1.00
4795;DHT22;2411;47.060;15.064;2023-04-24T08:37:01;10.00;1.00
4795;DHT22;2411;47.060;15.064;2023-04-24T08:39:29;10.00;1.00
4795;DHT22;2411;47.060;15.064;2023-04-24T08:41:57;10.10;1.00
4795;DHT22;2411;47.060;15.064;2023-04-24T08:44:32;10.20;1.00
4795;DHT22;2411;47.060;15.064;2023-04-24T08:47:02;10.40;1.00
4795;DHT22;2411;47.060;15.064;2023-04-24T08:49:29;10.40;1.00
4795;DHT22;2411;47.060;15.064;2023-04-24T08:51:57;10.30;1.00
4795;DHT22;2411;47.060;15.064;2023-04-24T08:54:26;10.50;1.00
4795;DHT22;2411;47.060;15.064;2023-04-24T08:56:58;10.70;1.00
4795;DHT22;2411;47.060;15.064;2023-04-24T08:59:28;10.60;1.00
4795;DHT22;2411;47.060;15.064;2023-04-24T09:01:56;10.90;1.00
4795;DHT22;2411;47.060;15.064;2023-04-24T09:04:24;10.90;1.00
4795;DHT22;2411;47.060;15.064;2023-04-24T09:06:56;10.90;1.00
4795;DHT22;2411;47.060;15.064;2023-04-24T09:09:24;11.00;1.00
4795;DHT22;2411;47.060;15.064;2023-04-24T09:11:53;11.20;1.00
4795;DHT22;2411;47.060;15.064;2023-04-24T09:14:23;11.10;1.00
4795;DHT22;2411;47.060;15.064;2023-04-24T09:16:51;11.20;1.00
4795;DHT22;2411;47.060;15.064;2023-04-24T09:19:18;11.40;1.00
4795;DHT22;2411;47.060;15.064;2023-04-24T09:21:46;11.80;1.00
4795;DHT22;2411;47.060;15.064;2023-04-24T09:24:18;11.90;1.00
4795;DHT22;2411;47.060;15.064;2023-04-24T09:26:48;11.70;1.00
4795;DHT22;2411;47.060;15.064;2023-04-24T09:29:17;11.60;1.00
4795;DHT22;2411;47.060;15.064;2023-04-24T09:31:45;11.80;1.00
4795;DHT22;2411;47.060;15.064;2023-04-24T09:34:12;12.00;1.00
4795;DHT22;2411;47.060;15.064;2023-04-24T09:36:43;12.00;1.00
4795;DHT22;2411;47.060;15.064;2023-04-24T09:39:13;12.20;1.00
4795;DHT22;2411;47.060;15.064;2023-04-24T09:41:51;11.90;1.00
4795;DHT22;2411;47.060;15.064;2023-04-24T09:44:20;11.90;1.00
4795;DHT22;2411;47.060;15.064;2023-04-24T09:46:55;12.20;1.00
4795;DHT22;2411;47.060;15.064;2023-04-24T09:49:28;12.60;1.00
4795;DHT22;2411;47.060;15.064;2023-04-24T09:52:06;12.20;1.00
4795;DHT22;2411;47.060;15.064;2023-04-24T09:54:33;12.40;1.00
4795;DHT22;2411;47.060;15.064;2023-04-24T09:57:00;12.70;1.00
4795;DHT22;2411;47.060;15.064;2023-04-24T09:59:28;12.40;1.00
4795;DHT22;2411;47.060;15.064;2023-04-24T10:01:55;12.50;1.00
4795;DHT22;2411;47.060;15.064;2023-04-24T10:04:26;12.80;1.00
4795;DHT22;2411;47.060;15.064;2023-04-24T10:06:55;13.00;1.00
4795;DHT22;2411;47.060;15.064;2023-04-24T10:09:25;12.90;1.00
4795;DHT22;2411;47.060;15.064;2023-04-24T10:11:54;13.20;1.00
4795;DHT22;2411;47.060;15.064;2023-04-24T10:14:24;13.30;1.00
4795;DHT22;2411;47.060;15.064;2023-04-24T10:16:55;13.10;1.00
4795;DHT22;2411;47.060;15.064;2023-04-24T10:19:26;13.40;1.00
4795;DHT22;2411;47.060;15.064;2023-04-24T10:21:54;13.20;1.00
4795;DHT22;2411;47.060;15.064;2023-04-24T10:24:22;13.80;1.00
4795;DHT22;2411;47.060;15.064;2023-04-24T10:26:50;13.50;1.00
4795;DHT22;2411;47.060;15.064;2023-04-24T10:29:18;13.90;1.00
4795;DHT22;2411;47.060;15.064;2023-04-24T10:31:46;13.80;1.00
4795;DHT22;2411;47.060;15.064;2023-04-24T10:34:15;13.50;1.00
4795;DHT22;2411;47.060;15.064;2023-04-24T10:36:56;13.70;1.00
4795;DHT22;2411;47.060;15.064;2023-04-24T10:39:24;13.80;1.00
4795;DHT22;2411;47.060;15.064;2023-04-24T10:41:54;14.40;1.00
4795;DHT22;2411;47.060;15.064;2023-04-24T10:44:25;14.20;1.00
4795;DHT22;2411;47.060;15.064;2023-04-24T10:46:55;14.20;1.00
4795;DHT22;2411;47.060;15.064;2023-04-24T10:49:30;14.00;1.00
4795;DHT22;2411;47.060;15.064;2023-04-24T10:52:04;13.90;1.00
4795;DHT22;2411;47.060;15.064;2023-04-24T10:54:41;14.10;1.00
4795;DHT22;2411;47.060;15.064;2023-04-24T10:59:46;14.60;1.00
4795;DHT22;2411;47.060;15.064;2023-04-24T11:02:17;14.10;1.00
4795;DHT22;2411;47.060;15.064;2023-04-24T11:04:45;14.30;1.00
4795;DHT22;2411;47.060;15.064;2023-04-24T11:07:13;14.40;1.00
4795;DHT22;2411;47.060;15.064;2023-04-24T11:09:42;14.90;1.40
4795;DHT22;2411;47.060;15.064;2023-04-24T11:12:11;15.00;3.30
4795;DHT22;2411;47.060;15.064;2023-04-24T11:14:59;14.90;2.20
4795;DHT22;2411;47.060;15.064;2023-04-24T11:17:45;14.90;11.40
4795;DHT22;2411;47.060;15.064;2023-04-24T11:20:17;15.20;9.30
4795;DHT22;2411;47.060;15.064;2023-04-24T11:22:54;14.60;6.60
4795;DHT22;2411;47.060;15.064;2023-04-24T11:25:22;14.90;5.70
4795;DHT22;2411;47.060;15.064;2023-04-24T11:27:50;14.90;14.00
4795;DHT22;2411;47.060;15.064;2023-04-24T11:30:19;15.30;7.60
4795;DHT22;2411;47.060;15.064;2023-04-24T11:32:52;15.50;1.00
4795;DHT22;2411;47.060;15.064;2023-04-24T11:35:22;15.20;1.00
4795;DHT22;2411;47.060;15.064;2023-04-24T11:37:55;15.30;1.00
4795;DHT22;2411;47.060;15.064;2023-04-24T11:40:25;15.20;1.00
4795;DHT22;2411;47.060;15.064;2023-04-24T11:42:53;14.80;1.00
4795;DHT22;2411;47.060;15.064;2023-04-24T11:45:26;14.90;1.00
4795;DHT22;2411;47.060;15.064;2023-04-24T11:47:54;15.50;1.00
4795;DHT22;2411;47.060;15.064;2023-04-24T11:50:23;15.40;1.00
4795;DHT22;2411;47.060;15.064;2023-04-24T11:52:52;15.70;1.00
4795;DHT22;2411;47.060;15.064;2023-04-24T11:57:52;15.30;1.00
4795;DHT22;2411;47.060;15.064;2023-04-24T12:00:25;15.40;1.00
4795;DHT22;2411;47.060;15.064;2023-04-24T12:03:10;16.00;1.00
4795;DHT22;2411;47.060;15.064;2023-04-24T12:05:39;15.90;1.00
4795;DHT22;2411;47.060;15.064;2023-04-24T12:08:07;15.90;1.00
4795;DHT22;2411;47.060;15.064;2023-04-24T12:10:34;15.60;1.00
4795;DHT22;2411;47.060;15.064;2023-04-24T12:13:02;15.80;1.00
4795;DHT22;2411;47.060;15.064;2023-04-24T12:15:29;15.40;1.00
4795;DHT22;2411;47.060;15.064;2023-04-24T12:17:57;15.60;1.00
4795;DHT22;2411;47.060;15.064;2023-04-24T12:20:30;15.80;1.00
4795;DHT22;2411;47.060;15.064;2023-04-24T12:22:59;15.60;1.00
4795;DHT22;2411;47.060;15.064;2023-04-24T12:25:31;15.60;1.00
4795;DHT22;2411;47.060;15.064;2023-04-24T12:30:35;15.90;1.00
4795;DHT22;2411;47.060;15.064;2023-04-24T12:33:05;15.60;1.00
4795;DHT22;2411;47.060;15.064;2023-04-24T12:35:33;16.10;1.00
4795;DHT22;2411;47.060;15.064;2023-04-24T12:38:10;15.80;1.00
4795;DHT22;2411;47.060;15.064;2023-04-24T12:40:38;16.00;1.00
4795;DHT22;2411;47.060;15.064;2023-04-24T12:43:18;15.60;1.00
4795;DHT22;2411;47.060;15.064;2023-04-24T12:45:48;16.10;1.00
4795;DHT22;2411;47.060;15.064;2023-04-24T12:48:15;15.80;1.00
4795;DHT22;2411;47.060;15.064;2023-04-24T12:50:43;16.20;1.00
4795;DHT22;2411;47.060;15.064;2023-04-24T12:53:13;16.10;1.00
4795;DHT22;2411;47.060;15.064;2023-04-24T12:55:41;16.10;1.00
4795;DHT22;2411;47.060;15.064;2023-04-24T12:58:09;15.90;1.00
4795;DHT22;2411;47.060;15.064;2023-04-24T13:00:36;15.70;1.00
4795;DHT22;2411;47.060;15.064;2023-04-24T13:03:04;15.60;1.00
4795;DHT22;2411;47.060;15.064;2023-04-24T13:05:32;15.60;1.00
4795;DHT22;2411;47.060;15.064;2023-04-24T13:07:59;15.50;1.00
4795;DHT22;2411;47.060;15.064;2023-04-24T13:10:26;15.20;1.00
4795;DHT22;2411;47.060;15.064;2023-04-24T13:12:54;15.40;1.00
4795;DHT22;2411;47.060;15.064;2023-04-24T13:15:22;15.10;1.00
4795;DHT22;2411;47.060;15.064;2023-04-24T13:17:50;15.20;1.00
4795;DHT22;2411;47.060;15.064;2023-04-24T13:20:17;15.40;1.00
4795;DHT22;2411;47.060;15.064;2023-04-24T13:22:45;15.30;1.00
4795;DHT22;2411;47.060;15.064;2023-04-24T13:25:12;15.00;1.00
4795;DHT22;2411;47.060;15.064;2023-04-24T13:27:39;15.10;1.00
4795;DHT22;2411;47.060;15.064;2023-04-24T13:30:07;15.20;1.00
4795;DHT22;2411;47.060;15.064;2023-04-24T13:32:35;15.00;1.00
4795;DHT22;2411;47.060;15.064;2023-04-24T13:35:03;15.00;1.00
4795;DHT22;2411;47.060;15.064;2023-04-24T13:37:30;14.90;1.00
4795;DHT22;2411;47.060;15.064;2023-04-24T13:39:57;14.60;1.00
4795;DHT22;2411;47.060;15.064;2023-04-24T13:42:24;14.40;1.00
4795;DHT22;2411;47.060;15.064;2023-04-24T13:44:52;14.90;1.00
4795;DHT22;2411;47.060;15.064;2023-04-24T13:47:21;14.50;1.00
4795;DHT22;2411;47.060;15.064;2023-04-24T13:49:48;14.60;1.00
4795;DHT22;2411;47.060;15.064;2023-04-24T13:52:15;14.60;1.00
4795;DHT22;2411;47.060;15.064;2023-04-24T13:54:43;14.40;1.00
4795;DHT22;2411;47.060;15.064;2023-04-24T13:57:10;14.60;1.00
4795;DHT22;2411;47.060;15.064;2023-04-24T13:59:38;14.70;1.00
4795;DHT22;2411;47.060;15.064;2023-04-24T14:02:05;14.90;1.00
4795;DHT22;2411;47.060;15.064;2023-04-24T14:04:32;14.70;1.00
4795;DHT22;2411;47.060;15.064;2023-04-24T14:07:00;14.30;1.00
4795;DHT22;2411;47.060;15.064;2023-04-24T14:09:27;14.90;1.00
4795;DHT22;2411;47.060;15.064;2023-04-24T14:11:55;14.40;1.00
4795;DHT22;2411;47.060;15.064;2023-04-24T14:14:23;14.30;1.00
4795;DHT22;2411;47.060;15.064;2023-04-24T14:16:50;14.40;1.00
4795;DHT22;2411;47.060;15.064;2023-04-24T14:19:17;14.40;1.00
4795;DHT22;2411;47.060;15.064;2023-04-24T14:21:45;14.90;1.00
4795;DHT22;2411;47.060;15.064;2023-04-24T14:24:12;14.50;1.00
4795;DHT22;2411;47.060;15.064;2023-04-24T14:26:39;14.40;1.00
4795;DHT22;2411;47.060;15.064;2023-04-24T14:29:07;14.70;1.00
4795;DHT22;2411;47.060;15.064;2023-04-24T14:31:41;14.60;1.00
4795;DHT22;2411;47.060;15.064;2023-04-24T14:34:09;14.70;1.00
4795;DHT22;2411;47.060;15.064;2023-04-24T14:36:36;14.90;1.00
4795;DHT22;2411;47.060;15.064;2023-04-24T14:39:04;14.50;1.00
4795;DHT22;2411;47.060;15.064;2023-04-24T14:41:34;14.60;1.00
4795;DHT22;2411;47.060;15.064;2023-04-24T14:44:03;14.30;1.00
4795;DHT22;2411;47.060;15.064;2023-04-24T14:46:31;14.40;1.00
4795;DHT22;2411;47.060;15.064;2023-04-24T14:48:58;14.10;1.00
4795;DHT22;2411;47.060;15.064;2023-04-24T14:51:25;14.40;1.00
4795;DHT22;2411;47.060;15.064;2023-04-24T14:53:54;14.10;1.00
4795;DHT22;2411;47.060;15.064;2023-04-24T14:56:21;14.10;1.00
4795;DHT22;2411;47.060;15.064;2023-04-24T14:58:48;14.40;1.00
4795;DHT22;2411;47.060;15.064;2023-04-24T15:01:16;14.00;1.00
4795;DHT22;2411;47.060;15.064;2023-04-24T15:03:44;13.80;1.00
4795;DHT22;2411;47.060;15.064;2023-04-24T15:06:13;13.70;1.00
4795;DHT22;2411;47.060;15.064;2023-04-24T15:08:40;13.90;1.00
4795;DHT22;2411;47.060;15.064;2023-04-24T15:11:12;14.00;1.00
4795;DHT22;2411;47.060;15.064;2023-04-24T15:13:39;13.70;1.00
4795;DHT22;2411;47.060;15.064;2023-04-24T15:16:06;14.00;1.00
4795;DHT22;2411;47.060;15.064;2023-04-24T15:18:34;14.00;1.00
4795;DHT22;2411;47.060;15.064;2023-04-24T15:21:01;13.90;1.00
4795;DHT22;2411;47.060;15.064;2023-04-24T15:23:28;13.80;1.00
4795;DHT22;2411;47.060;15.064;2023-04-24T15:25:56;13.60;1.00
4795;DHT22;2411;47.060;15.064;2023-04-24T15:28:24;13.70;1.00
4795;DHT22;2411;47.060;15.064;2023-04-24T15:30:52;13.30;1.00
4795;DHT22;2411;47.060;15.064;2023-04-24T15:33:19;12.90;1.00
4795;DHT22;2411;47.060;15.064;2023-04-24T15:35:47;13.00;1.00
4795;DHT22;2411;47.060;15.064;2023-04-24T15:38:15;13.10;1.00
4795;DHT22;2411;47.060;15.064;2023-04-24T15:40:43;13.00;1.00
4795;DHT22;2411;47.060;15.064;2023-04-24T15:43:11;13.00;1.00
4795;DHT22;2411;47.060;15.064;2023-04-24T15:45:38;12.70;1.00
4795;DHT22;2411;47.060;15.064;2023-04-24T15:48:06;12.50;1.00
4795;DHT22;2411;47.060;15.064;2023-04-24T15:50:33;12.50;1.00
4795;DHT22;2411;47.060;15.064;2023-04-24T15:53:01;12.50;1.00
4795;DHT22;2411;47.060;15.064;2023-04-24T15:55:28;12.50;1.00
4795;DHT22;2411;47.060;15.064;2023-04-24T15:57:56;12.40;1.00
4795;DHT22;2411;47.060;15.064;2023-04-24T16:00:23;12.40;1.00
4795;DHT22;2411;47.060;15.064;2023-04-24T16:02:50;12.60;1.00
4795;DHT22;2411;47.060;15.064;2023-04-24T16:05:18;12.60;1.00
4795;DHT22;2411;47.060;15.064;2023-04-24T16:07:46;12.50;1.00
4795;DHT22;2411;47.060;15.064;2023-04-24T16:10:13;12.40;1.00
4795;DHT22;2411;47.060;15.064;2023-04-24T16:12:41;12.50;1.00
4795;DHT22;2411;47.060;15.064;2023-04-24T16:15:09;12.10;1.00
4795;DHT22;2411;47.060;15.064;2023-04-24T16:17:36;12.30;1.00
4795;DHT22;2411;47.060;15.064;2023-04-24T16:20:04;12.40;1.00
4795;DHT22;2411;47.060;15.064;2023-04-24T16:22:33;12.10;1.00
4795;DHT22;2411;47.060;15.064;2023-04-24T16:25:01;12.30;1.00